createdAt,value
2022-11-13T00:01:48.197Z,8.74
2022-11-13T00:04:17.800Z,8.73
2022-11-13T00:06:47.362Z,8.73
2022-11-13T00:09:17.025Z,8.74
2022-11-13T00:11:47.337Z,8.73
2022-11-13T00:14:17.452Z,8.74
2022-11-13T00:16:48.836Z,8.71
2022-11-13T00:19:18.833Z,8.70
2022-11-13T00:21:48.524Z,8.69
2022-11-13T00:24:18.166Z,8.67
2022-11-13T00:26:47.805Z,8.69
2022-11-13T00:29:17.656Z,8.69
2022-11-13T00:31:48.797Z,8.67
2022-11-13T00:34:47.173Z,8.73
2022-11-13T00:37:08.020Z,8.67
2022-11-13T00:39:37.762Z,8.69
2022-11-13T00:42:07.358Z,8.71
2022-11-13T00:44:36.941Z,8.70
2022-11-13T00:47:07.966Z,8.69
2022-11-13T00:49:37.568Z,8.66
2022-11-13T00:52:07.606Z,8.69
2022-11-13T00:54:37.212Z,8.69
2022-11-13T00:57:06.905Z,8.63
2022-11-13T00:59:36.619Z,8.58
2022-11-13T01:02:08.378Z,8.54
2022-11-13T01:04:37.925Z,8.54
2022-11-13T01:07:07.562Z,8.49
2022-11-13T01:09:37.219Z,8.51
2022-11-13T01:12:08.347Z,8.49
2022-11-13T01:14:38.397Z,8.50
2022-11-13T01:17:09.814Z,8.48
2022-11-13T01:19:39.508Z,8.47
2022-11-13T01:22:09.200Z,8.47
2022-11-13T01:24:38.760Z,8.48
2022-11-13T01:27:08.402Z,8.47
2022-11-13T01:29:38.654Z,8.47
2022-11-13T01:32:10.074Z,8.44
2022-11-13T01:34:39.761Z,8.41
2022-11-13T01:37:09.493Z,8.43
2022-11-13T01:39:39.184Z,8.48
2022-11-13T01:42:08.958Z,8.46
2022-11-13T01:44:49.403Z,8.48
2022-11-13T01:47:21.641Z,8.45
2022-11-13T01:49:52.996Z,8.46
2022-11-13T01:52:24.286Z,8.47
2022-11-13T01:54:54.861Z,8.50
2022-11-13T01:57:24.481Z,8.45
2022-11-13T01:59:56.684Z,8.45
2022-11-13T02:02:27.914Z,8.44
2022-11-13T02:04:57.528Z,8.51
2022-11-13T02:07:27.417Z,8.46
2022-11-13T02:09:58.229Z,8.41
2022-11-13T02:12:33.906Z,8.45
2022-11-13T02:15:06.048Z,8.47
2022-11-13T02:17:41.909Z,8.43
2022-11-13T02:20:11.898Z,8.36
2022-11-13T02:22:45.334Z,8.36
2022-11-13T02:25:17.199Z,8.34
2022-11-13T02:27:48.224Z,8.30
2022-11-13T02:30:23.646Z,8.31
2022-11-13T02:32:57.356Z,8.28
2022-11-13T02:35:28.778Z,8.28
2022-11-13T02:37:59.227Z,8.31
2022-11-13T02:40:30.609Z,8.24
2022-11-13T02:43:00.476Z,8.25
2022-11-13T02:45:30.136Z,8.23
2022-11-13T02:48:00.798Z,8.19
2022-11-13T02:50:30.399Z,8.24
2022-11-13T02:53:00.170Z,8.22
2022-11-13T02:55:31.210Z,8.22
2022-11-13T02:58:00.984Z,8.25
2022-11-13T03:00:31.126Z,8.22
2022-11-13T03:03:01.141Z,8.25
2022-11-13T03:05:30.783Z,8.21
2022-11-13T03:08:00.589Z,8.19
2022-11-13T03:10:31.623Z,8.14
2022-11-13T03:13:03.648Z,8.17
2022-11-13T03:15:34.906Z,8.13
2022-11-13T03:18:05.292Z,8.09
2022-11-13T03:20:37.009Z,8.12
2022-11-13T03:23:06.729Z,8.12
2022-11-13T03:25:37.725Z,8.14
2022-11-13T03:28:07.324Z,8.17
2022-11-13T03:30:36.831Z,8.21
2022-11-13T03:33:06.473Z,8.15
2022-11-13T03:35:42.958Z,8.13
2022-11-13T03:38:15.538Z,8.13
2022-11-13T03:40:46.497Z,8.03
2022-11-13T03:43:16.337Z,8.15
2022-11-13T03:45:47.248Z,8.18
2022-11-13T03:48:17.479Z,8.17
2022-11-13T03:50:47.886Z,8.17
2022-11-13T03:53:17.613Z,8.23
2022-11-13T03:55:48.606Z,8.16
2022-11-13T03:58:18.278Z,8.17
2022-11-13T04:00:48.337Z,8.10
2022-11-13T04:03:18.143Z,8.14
2022-11-13T04:05:49.036Z,8.18
2022-11-13T04:08:19.156Z,8.24
2022-11-13T04:10:50.141Z,8.20
2022-11-13T04:13:20.293Z,8.24
2022-11-13T04:15:50.647Z,8.25
2022-11-13T04:18:20.524Z,8.21
2022-11-13T04:20:50.068Z,8.21
2022-11-13T04:23:19.678Z,8.24
2022-11-13T04:25:51.019Z,8.19
2022-11-13T04:28:20.698Z,8.19
2022-11-13T04:30:50.456Z,8.23
2022-11-13T04:33:20.212Z,8.22
2022-11-13T04:35:49.996Z,8.17
2022-11-13T04:38:19.758Z,8.16
2022-11-13T04:41:12.139Z,8.21
2022-11-13T04:43:40.833Z,8.21
2022-11-13T04:46:10.360Z,8.18
2022-11-13T04:48:40.022Z,8.22
2022-11-13T04:51:09.623Z,8.13
2022-11-13T04:53:39.203Z,8.16
2022-11-13T04:56:10.186Z,8.13
2022-11-13T04:58:39.739Z,8.14
2022-11-13T05:01:09.296Z,8.18
2022-11-13T05:03:39.011Z,8.13
2022-11-13T05:06:10.073Z,8.18
2022-11-13T05:08:39.696Z,8.15
2022-11-13T05:11:10.540Z,8.07
2022-11-13T05:13:40.447Z,8.12
2022-11-13T05:16:11.713Z,8.15
2022-11-13T05:18:41.523Z,8.18
2022-11-13T05:21:10.991Z,8.06
2022-11-13T05:23:40.498Z,8.09
2022-11-13T05:26:12.247Z,8.15
2022-11-13T05:28:41.841Z,8.18
2022-11-13T05:31:12.118Z,8.18
2022-11-13T05:33:42.454Z,8.18
2022-11-13T05:36:14.341Z,8.28
2022-11-13T05:38:44.313Z,8.37
2022-11-13T05:41:15.827Z,8.40
2022-11-13T05:43:45.666Z,8.37
2022-11-13T05:46:16.507Z,8.39
2022-11-13T05:48:46.650Z,8.44
2022-11-13T05:51:17.115Z,8.45
2022-11-13T05:53:46.896Z,8.46
2022-11-13T05:56:18.913Z,8.48
2022-11-13T05:58:48.988Z,8.48
2022-11-13T06:01:19.685Z,8.51
2022-11-13T06:03:49.606Z,8.54
2022-11-13T06:06:20.221Z,8.56
2022-11-13T06:08:50.753Z,8.59
2022-11-13T06:11:24.518Z,8.59
2022-11-13T06:13:54.831Z,8.63
2022-11-13T06:16:25.619Z,8.65
2022-11-13T06:18:56.200Z,8.62
2022-11-13T06:21:26.841Z,8.68
2022-11-13T06:23:57.498Z,8.78
2022-11-13T06:26:29.256Z,8.83
2022-11-13T06:28:59.015Z,8.92
2022-11-13T06:31:29.249Z,8.97
2022-11-13T06:34:00.171Z,9.03
2022-11-13T06:36:33.334Z,9.07
2022-11-13T06:39:03.246Z,9.06
2022-11-13T06:41:34.246Z,9.08
2022-11-13T06:44:03.864Z,9.07
2022-11-13T06:46:33.646Z,9.11
2022-11-13T06:49:03.154Z,9.17
2022-11-13T06:51:32.707Z,9.18
2022-11-13T06:54:07.365Z,9.22
2022-11-13T06:56:43.767Z,9.29
2022-11-13T06:59:13.308Z,9.29
2022-11-13T07:01:42.813Z,9.31
2022-11-13T07:04:13.466Z,9.37
2022-11-13T07:06:43.101Z,9.40
2022-11-13T07:09:12.602Z,9.46
2022-11-13T07:11:44.205Z,9.52
2022-11-13T07:14:14.289Z,9.58
2022-11-13T07:17:08.090Z,9.63
2022-11-13T07:19:33.981Z,9.70
2022-11-13T07:22:03.465Z,9.74
2022-11-13T07:24:33.036Z,9.81
2022-11-13T07:27:04.157Z,9.86
2022-11-13T07:29:33.670Z,9.89
2022-11-13T07:32:03.211Z,9.92
2022-11-13T07:34:32.770Z,10.00
2022-11-13T07:37:03.118Z,10.15
2022-11-13T07:39:32.641Z,10.32
2022-11-13T07:42:02.142Z,10.44
2022-11-13T07:44:53.394Z,10.50
2022-11-13T07:47:22.741Z,10.43
2022-11-13T07:49:53.735Z,10.35
2022-11-13T07:52:24.842Z,10.33
2022-11-13T07:54:54.410Z,10.49
2022-11-13T07:57:23.985Z,10.66
2022-11-13T07:59:55.128Z,10.69
2022-11-13T08:02:26.684Z,10.70
2022-11-13T08:04:56.596Z,10.75
2022-11-13T08:07:26.498Z,10.76
2022-11-13T08:09:56.046Z,10.83
2022-11-13T08:12:26.075Z,10.98
2022-11-13T08:14:57.276Z,10.89
2022-11-13T08:17:27.399Z,10.83
2022-11-13T08:19:56.868Z,10.84
2022-11-13T08:22:26.700Z,10.87
2022-11-13T08:24:56.269Z,10.84
2022-11-13T08:27:26.139Z,10.83
2022-11-13T08:29:57.045Z,10.95
2022-11-13T08:32:26.591Z,10.95
2022-11-13T08:34:56.084Z,10.98
2022-11-13T08:37:25.698Z,11.09
2022-11-13T08:39:55.317Z,11.02
2022-11-13T08:42:24.799Z,11.04
2022-11-13T08:44:54.287Z,11.20
2022-11-13T08:47:29.434Z,11.33
2022-11-13T08:49:59.545Z,11.31
2022-11-13T08:52:29.284Z,11.23
2022-11-13T08:54:59.128Z,11.20
2022-11-13T08:57:28.694Z,11.36
2022-11-13T08:59:58.120Z,11.40
2022-11-13T09:02:29.080Z,11.35
2022-11-13T09:04:58.665Z,11.29
2022-11-13T09:07:28.682Z,11.33
2022-11-13T09:09:58.205Z,11.38
2022-11-13T09:12:28.687Z,11.33
2022-11-13T09:14:59.245Z,11.37
2022-11-13T09:17:30.682Z,11.47
2022-11-13T09:20:04.009Z,11.61
2022-11-13T09:22:34.604Z,11.68
2022-11-13T09:25:04.296Z,11.65
2022-11-13T09:27:34.804Z,11.63
2022-11-13T09:30:04.658Z,11.62
2022-11-13T09:32:35.841Z,11.59
2022-11-13T09:35:05.606Z,11.59
2022-11-13T09:37:35.297Z,11.52
2022-11-13T09:40:05.030Z,11.47
2022-11-13T09:42:35.908Z,11.50
2022-11-13T09:45:08.085Z,11.44
2022-11-13T09:47:41.541Z,11.44
2022-11-13T09:50:13.373Z,11.47
2022-11-13T09:52:44.013Z,11.45
2022-11-13T09:55:14.529Z,11.43
2022-11-13T09:57:48.581Z,11.41
2022-11-13T10:00:19.474Z,11.37
2022-11-13T10:02:58.393Z,11.35
2022-11-13T10:05:33.003Z,11.37
2022-11-13T10:08:06.925Z,11.40
2022-11-13T10:10:55.637Z,11.46
2022-11-13T10:13:28.561Z,11.51
2022-11-13T10:16:03.302Z,11.61
2022-11-13T10:18:36.400Z,11.74
2022-11-13T10:21:11.059Z,11.77
2022-11-13T10:23:41.031Z,11.83
2022-11-13T10:26:14.441Z,11.87
2022-11-13T10:28:50.414Z,11.95
2022-11-13T10:31:20.397Z,12.02
2022-11-13T10:33:52.274Z,11.91
2022-11-13T10:36:25.693Z,11.85
2022-11-13T10:38:59.667Z,11.77
2022-11-13T10:41:29.456Z,11.72
2022-11-13T10:43:59.913Z,11.71
2022-11-13T10:46:30.617Z,11.71
2022-11-13T10:49:12.245Z,11.67
2022-11-13T10:51:42.160Z,11.63
2022-11-13T10:54:21.998Z,11.60
2022-11-13T10:56:58.192Z,11.57
2022-11-13T10:59:28.417Z,11.55
2022-11-13T11:01:57.933Z,11.54
2022-11-13T11:04:28.880Z,11.51
2022-11-13T11:07:19.734Z,11.49
2022-11-13T11:09:51.907Z,11.47
2022-11-13T11:12:30.321Z,11.49
2022-11-13T11:15:17.514Z,11.52
2022-11-13T11:17:54.762Z,11.61
2022-11-13T11:20:27.839Z,11.71
2022-11-13T11:23:00.677Z,11.79
2022-11-13T11:25:34.775Z,11.92
2022-11-13T11:28:07.053Z,12.01
2022-11-13T11:30:41.116Z,12.13
2022-11-13T11:33:14.176Z,12.25
2022-11-13T11:35:48.381Z,12.29
2022-11-13T11:38:20.834Z,12.29
2022-11-13T11:40:53.681Z,12.27
2022-11-13T11:43:28.297Z,12.28
2022-11-13T11:45:58.028Z,12.32
2022-11-13T11:48:29.861Z,12.31
2022-11-13T11:51:05.024Z,12.34
2022-11-13T11:53:41.226Z,12.32
2022-11-13T11:56:16.041Z,12.31
2022-11-13T11:58:56.069Z,12.30
2022-11-13T12:01:34.060Z,12.26
2022-11-13T12:04:11.715Z,12.22
2022-11-13T12:06:49.821Z,12.22
2022-11-13T12:09:24.593Z,12.22
2022-11-13T12:12:00.807Z,12.23
2022-11-13T12:14:37.254Z,12.24
2022-11-13T12:17:17.316Z,12.26
2022-11-13T12:19:53.199Z,12.24
2022-11-13T12:22:30.682Z,12.23
2022-11-13T12:25:09.521Z,12.21
2022-11-13T12:27:43.982Z,12.21
2022-11-13T12:30:16.781Z,12.22
2022-11-13T12:32:53.647Z,12.19
2022-11-13T12:35:24.856Z,12.21
2022-11-13T12:37:58.067Z,12.22
2022-11-13T12:40:30.070Z,12.20
2022-11-13T12:43:06.868Z,12.21
2022-11-13T12:45:45.614Z,12.16
2022-11-13T12:48:29.353Z,12.11
2022-11-13T12:51:00.465Z,12.10
2022-11-13T12:53:32.301Z,12.06
2022-11-13T12:56:02.783Z,12.02
2022-11-13T12:58:33.785Z,11.98
2022-11-13T13:01:07.158Z,11.97
2022-11-13T13:03:45.105Z,11.98
2022-11-13T13:06:22.382Z,11.96
2022-11-13T13:09:02.054Z,11.97
2022-11-13T13:11:38.362Z,11.95
2022-11-13T13:14:26.149Z,11.93
2022-11-13T13:17:05.517Z,11.89
2022-11-13T13:19:35.078Z,11.89
2022-11-13T13:22:04.651Z,11.86
2022-11-13T13:24:36.621Z,11.87
2022-11-13T13:27:21.651Z,11.84
2022-11-13T13:29:51.167Z,11.84
2022-11-13T13:32:23.909Z,11.83
2022-11-13T13:35:00.857Z,11.82
2022-11-13T13:37:36.340Z,11.80
2022-11-13T13:40:14.256Z,11.78
2022-11-13T13:42:51.157Z,11.78
2022-11-13T13:45:25.954Z,11.77
2022-11-13T13:47:57.575Z,11.77
2022-11-13T13:50:29.183Z,11.76
2022-11-13T13:52:59.748Z,11.80
2022-11-13T13:55:33.107Z,11.75
2022-11-13T13:58:05.700Z,11.69
2022-11-13T14:00:44.592Z,11.67
2022-11-13T14:03:25.105Z,11.65
2022-11-13T14:05:58.144Z,11.67
2022-11-13T14:08:31.867Z,11.63
2022-11-13T14:11:16.883Z,11.61
2022-11-13T14:13:47.123Z,11.58
2022-11-13T14:16:17.131Z,11.60
2022-11-13T14:18:46.849Z,11.56
2022-11-13T14:21:17.927Z,11.53
2022-11-13T14:23:49.194Z,11.50
2022-11-13T14:26:21.263Z,11.45
2022-11-13T14:28:54.025Z,11.41
2022-11-13T14:31:29.865Z,11.38
2022-11-13T14:34:01.786Z,11.31
2022-11-13T14:36:33.174Z,11.26
2022-11-13T14:39:02.794Z,11.23
2022-11-13T14:41:36.273Z,11.19
2022-11-13T14:44:06.492Z,11.12
2022-11-13T14:46:37.201Z,11.05
2022-11-13T14:49:13.881Z,11.03
2022-11-13T14:51:43.765Z,10.97
2022-11-13T14:54:33.815Z,10.91
2022-11-13T14:57:13.819Z,10.87
2022-11-13T14:59:44.357Z,10.83
2022-11-13T15:02:14.443Z,10.77
2022-11-13T15:04:44.117Z,10.71
2022-11-13T15:07:22.130Z,10.69
2022-11-13T15:09:51.862Z,10.65
2022-11-13T15:12:24.196Z,10.61
2022-11-13T15:14:54.457Z,10.57
2022-11-13T15:17:24.579Z,10.52
2022-11-13T15:19:55.006Z,10.50
2022-11-13T15:22:28.689Z,10.43
2022-11-13T15:24:58.716Z,10.40
2022-11-13T15:27:29.655Z,10.39
2022-11-13T15:29:59.537Z,10.35
2022-11-13T15:32:30.795Z,10.31
2022-11-13T15:35:00.961Z,10.25
2022-11-13T15:37:30.612Z,10.22
2022-11-13T15:40:00.433Z,10.18
2022-11-13T15:42:33.516Z,10.16
2022-11-13T15:45:03.324Z,10.10
2022-11-13T15:47:34.611Z,10.09
2022-11-13T15:50:14.400Z,10.09
2022-11-13T15:52:47.073Z,10.03
2022-11-13T15:55:20.419Z,10.05
2022-11-13T15:57:51.377Z,10.02
2022-11-13T16:00:24.943Z,9.98
2022-11-13T16:02:55.919Z,9.98
2022-11-13T16:05:26.513Z,9.93
2022-11-13T16:07:56.740Z,9.86
2022-11-13T16:10:26.535Z,9.82
2022-11-13T16:12:58.913Z,9.79
2022-11-13T16:15:28.935Z,9.74
2022-11-13T16:17:59.107Z,9.72
2022-11-13T16:20:28.821Z,9.73
2022-11-13T16:22:58.557Z,9.71
2022-11-13T16:25:28.090Z,9.70
2022-11-13T16:27:59.545Z,9.63
2022-11-13T16:30:31.413Z,9.61
2022-11-13T16:33:05.759Z,9.55
2022-11-13T16:35:35.316Z,9.48
2022-11-13T16:38:05.213Z,9.48
2022-11-13T16:40:34.893Z,9.41
2022-11-13T16:43:05.714Z,9.47
2022-11-13T16:45:35.278Z,9.46
2022-11-13T16:48:05.250Z,9.41
2022-11-13T16:50:36.932Z,9.41
2022-11-13T16:53:06.459Z,9.33
2022-11-13T16:55:36.812Z,9.32
2022-11-13T16:58:07.703Z,9.26
2022-11-13T17:00:37.253Z,9.23
2022-11-13T17:03:06.814Z,9.16
2022-11-13T17:05:36.546Z,9.09
2022-11-13T17:08:06.407Z,9.03
2022-11-13T17:10:36.140Z,9.02
2022-11-13T17:13:07.788Z,8.95
2022-11-13T17:15:37.891Z,8.93
2022-11-13T17:18:10.453Z,8.86
2022-11-13T17:20:40.069Z,8.81
2022-11-13T17:23:12.497Z,8.78
2022-11-13T17:25:43.012Z,8.82
2022-11-13T17:28:13.890Z,8.79
2022-11-13T17:30:43.399Z,8.64
2022-11-13T17:33:13.152Z,8.65
2022-11-13T17:35:46.469Z,8.66
2022-11-13T17:38:16.234Z,8.61
2022-11-13T17:40:46.326Z,8.60
2022-11-13T17:43:17.629Z,8.56
2022-11-13T17:45:50.034Z,8.59
2022-11-13T17:48:20.136Z,8.57
2022-11-13T17:50:59.115Z,8.51
2022-11-13T17:53:29.243Z,8.50
2022-11-13T17:56:00.772Z,8.44
2022-11-13T17:58:31.918Z,8.39
2022-11-13T18:01:05.290Z,8.37
2022-11-13T18:03:37.854Z,8.30
2022-11-13T18:06:09.490Z,8.26
2022-11-13T18:08:39.495Z,8.26
2022-11-13T18:11:10.076Z,8.27
2022-11-13T18:13:41.258Z,8.21
2022-11-13T18:16:12.912Z,8.25
2022-11-13T18:18:42.681Z,8.29
2022-11-13T18:21:22.518Z,8.11
2022-11-13T18:23:57.424Z,8.11
2022-11-13T18:26:27.676Z,8.17
2022-11-13T18:28:59.231Z,8.21
2022-11-13T18:31:29.578Z,8.14
2022-11-13T18:33:59.566Z,8.13
2022-11-13T18:36:29.780Z,8.18
2022-11-13T18:39:02.059Z,8.19
2022-11-13T18:41:32.631Z,8.17
2022-11-13T18:44:03.958Z,8.19
2022-11-13T18:46:33.569Z,8.14
2022-11-13T18:49:03.289Z,8.15
2022-11-13T18:51:35.686Z,8.12
2022-11-13T18:54:09.645Z,7.92
2022-11-13T18:56:40.764Z,7.96
2022-11-13T18:59:11.841Z,7.93
2022-11-13T19:01:42.206Z,8.03
2022-11-13T19:04:27.487Z,8.00
2022-11-13T19:06:57.539Z,7.95
2022-11-13T19:09:27.565Z,7.89
2022-11-13T19:11:58.186Z,7.92
2022-11-13T19:14:29.903Z,7.88
2022-11-13T19:17:00.325Z,7.84
2022-11-13T19:19:29.956Z,7.82
2022-11-13T19:22:00.494Z,7.80
2022-11-13T19:24:30.717Z,7.75
2022-11-13T19:27:00.587Z,7.72
2022-11-13T19:29:31.673Z,7.65
2022-11-13T19:32:01.452Z,7.64
2022-11-13T19:34:31.107Z,7.67
2022-11-13T19:37:00.731Z,7.56
2022-11-13T19:39:30.461Z,7.57
2022-11-13T19:42:00.262Z,7.50
2022-11-13T19:44:31.521Z,7.48
2022-11-13T19:47:01.226Z,7.52
2022-11-13T19:49:31.005Z,7.54
2022-11-13T19:52:00.735Z,7.50
2022-11-13T19:54:30.357Z,7.50
2022-11-13T19:57:00.242Z,7.51
2022-11-13T19:59:31.216Z,7.40
2022-11-13T20:02:00.740Z,7.31
2022-11-13T20:04:30.280Z,7.36
2022-11-13T20:07:00.160Z,7.21
2022-11-13T20:09:30.102Z,7.26
2022-11-13T20:12:00.243Z,7.25
2022-11-13T20:14:35.668Z,7.20
2022-11-13T20:17:09.109Z,7.19
2022-11-13T20:19:38.938Z,7.23
2022-11-13T20:22:08.493Z,7.15
2022-11-13T20:24:38.095Z,7.17
2022-11-13T20:27:07.753Z,7.10
2022-11-13T20:29:38.660Z,7.09
2022-11-13T20:32:08.232Z,7.08
2022-11-13T20:34:37.710Z,7.03
2022-11-13T20:37:07.218Z,7.09
2022-11-13T20:39:38.894Z,7.00
2022-11-13T20:42:09.004Z,7.02
2022-11-13T20:44:39.865Z,6.97
2022-11-13T20:47:09.372Z,6.99
2022-11-13T20:49:38.895Z,6.92
2022-11-13T20:52:09.703Z,6.95
2022-11-13T20:54:39.312Z,7.00
2022-11-13T20:57:08.840Z,6.95
2022-11-13T20:59:39.771Z,6.94
2022-11-13T21:02:10.065Z,6.90
2022-11-13T21:04:39.640Z,6.80
2022-11-13T21:07:09.269Z,6.86
2022-11-13T21:09:38.817Z,6.80
2022-11-13T21:12:09.028Z,6.80
2022-11-13T21:14:40.714Z,6.79
2022-11-13T21:17:10.718Z,6.73
2022-11-13T21:19:40.201Z,6.76
2022-11-13T21:22:09.729Z,6.73
2022-11-13T21:24:39.228Z,6.71
2022-11-13T21:27:08.730Z,6.72
2022-11-13T21:29:38.235Z,6.56
2022-11-13T21:32:09.142Z,6.56
2022-11-13T21:34:38.737Z,6.59
2022-11-13T21:37:08.323Z,6.52
2022-11-13T21:39:37.831Z,6.39
2022-11-13T21:42:07.731Z,6.36
2022-11-13T21:44:37.768Z,6.44
2022-11-13T21:47:07.322Z,6.47
2022-11-13T21:49:38.223Z,6.45
2022-11-13T21:52:07.700Z,6.54
2022-11-13T21:54:37.238Z,6.45
2022-11-13T21:57:07.029Z,6.55
2022-11-13T21:59:36.597Z,6.45
2022-11-13T22:02:06.174Z,6.31
2022-11-13T22:04:35.838Z,6.33
2022-11-13T22:07:06.830Z,6.34
2022-11-13T22:09:37.102Z,6.26
2022-11-13T22:12:07.525Z,6.24
2022-11-13T22:14:37.442Z,6.21
2022-11-13T22:17:07.464Z,6.25
2022-11-13T22:19:37.239Z,6.30
2022-11-13T22:22:08.219Z,6.14
2022-11-13T22:24:37.733Z,6.20
2022-11-13T22:27:07.244Z,6.13
2022-11-13T22:29:36.793Z,6.14
2022-11-13T22:32:06.437Z,6.20
2022-11-13T22:34:35.921Z,6.21
2022-11-13T22:37:05.433Z,6.15
2022-11-13T22:39:36.310Z,6.20
2022-11-13T22:42:05.851Z,6.09
2022-11-13T22:44:54.831Z,6.12
2022-11-13T22:47:24.833Z,6.08
2022-11-13T22:49:54.300Z,6.14
2022-11-13T22:52:23.897Z,6.13
2022-11-13T22:54:54.781Z,6.06
2022-11-13T22:57:24.294Z,6.12
2022-11-13T22:59:53.820Z,6.09
2022-11-13T23:02:23.449Z,6.07
2022-11-13T23:04:52.938Z,6.06
2022-11-13T23:07:22.845Z,6.00
2022-11-13T23:09:52.564Z,5.98
2022-11-13T23:12:24.140Z,5.95
2022-11-13T23:14:53.996Z,5.87
2022-11-13T23:17:23.994Z,5.88
2022-11-13T23:19:53.549Z,5.86
2022-11-13T23:22:23.058Z,5.86
2022-11-13T23:24:52.613Z,5.90
2022-11-13T23:27:22.196Z,5.83
2022-11-13T23:29:53.832Z,5.71
2022-11-13T23:32:23.606Z,5.88
2022-11-13T23:34:59.308Z,5.78
2022-11-13T23:37:29.545Z,5.72
2022-11-13T23:39:59.203Z,5.71
2022-11-13T23:42:53.382Z,5.75
2022-11-13T23:45:19.798Z,5.74
2022-11-13T23:47:49.304Z,5.66
2022-11-13T23:50:18.809Z,5.60
2022-11-13T23:52:48.571Z,5.51
2022-11-13T23:55:18.670Z,5.66
2022-11-13T23:57:48.457Z,5.64
